createdAt,value
2017-12-31T00:00:06.297Z,23.70
2017-12-31T00:02:33.760Z,23.70
2017-12-31T00:05:01.214Z,23.60
2017-12-31T00:07:28.676Z,23.60
2017-12-31T00:09:56.180Z,23.60
2017-12-31T00:12:23.645Z,23.60
2017-12-31T00:14:51.100Z,23.60
2017-12-31T00:17:18.614Z,23.60
2017-12-31T00:19:46.114Z,23.60
2017-12-31T00:22:13.554Z,23.60
2017-12-31T00:24:41.013Z,23.60
2017-12-31T00:27:08.476Z,23.60
2017-12-31T00:29:35.950Z,23.60
2017-12-31T00:32:03.410Z,23.60
2017-12-31T00:34:30.897Z,23.60
2017-12-31T00:36:58.360Z,23.60
2017-12-31T00:39:25.823Z,23.60
2017-12-31T00:41:53.304Z,23.60
2017-12-31T00:44:21.520Z,23.60
2017-12-31T00:46:48.968Z,23.50
2017-12-31T00:49:16.428Z,23.50
2017-12-31T00:51:43.880Z,23.50
2017-12-31T00:54:11.342Z,23.50
2017-12-31T00:56:38.801Z,23.50
2017-12-31T00:59:06.257Z,23.50
2017-12-31T01:01:33.716Z,23.50
2017-12-31T01:04:01.213Z,23.50
2017-12-31T01:06:30.173Z,23.50
2017-12-31T01:08:57.639Z,23.50
2017-12-31T01:11:25.287Z,23.50
2017-12-31T01:13:52.764Z,23.50
2017-12-31T01:16:20.230Z,23.50
2017-12-31T01:18:47.729Z,23.50
2017-12-31T01:21:15.941Z,23.40
2017-12-31T01:23:43.395Z,23.40
2017-12-31T01:26:10.937Z,23.40
2017-12-31T01:28:38.392Z,23.40
2017-12-31T01:31:05.848Z,23.40
2017-12-31T01:33:33.307Z,23.40
2017-12-31T01:36:01.539Z,23.40
2017-12-31T01:38:28.994Z,23.40
2017-12-31T01:40:56.460Z,23.40
2017-12-31T01:43:23.919Z,23.40
2017-12-31T01:45:51.381Z,23.40
2017-12-31T01:48:18.835Z,23.30
2017-12-31T01:50:46.313Z,23.40
2017-12-31T01:53:13.823Z,23.40
2017-12-31T01:55:41.281Z,23.30
2017-12-31T01:58:08.827Z,23.30
2017-12-31T02:00:36.306Z,23.30
2017-12-31T02:03:03.773Z,23.30
2017-12-31T02:05:31.228Z,23.30
2017-12-31T02:07:58.706Z,23.30
2017-12-31T02:10:26.925Z,23.30
2017-12-31T02:12:54.381Z,23.20
2017-12-31T02:15:21.906Z,23.20
2017-12-31T02:17:49.558Z,23.20
2017-12-31T02:20:17.327Z,23.20
2017-12-31T02:22:44.790Z,23.20
2017-12-31T02:25:12.237Z,23.20
2017-12-31T02:27:39.716Z,23.20
2017-12-31T02:30:07.178Z,23.20
2017-12-31T02:32:34.658Z,23.20
2017-12-31T02:35:02.101Z,23.20
2017-12-31T02:37:29.557Z,23.20
2017-12-31T02:39:57.014Z,23.20
2017-12-31T02:42:24.464Z,23.10
2017-12-31T02:44:51.914Z,23.10
2017-12-31T02:47:19.395Z,23.10
2017-12-31T02:49:46.849Z,23.10
2017-12-31T02:52:14.306Z,23.10
2017-12-31T02:54:41.755Z,23.10
2017-12-31T02:57:09.212Z,23.00
2017-12-31T02:59:36.673Z,23.00
2017-12-31T03:02:04.153Z,23.00
2017-12-31T03:04:31.600Z,23.00
2017-12-31T03:06:59.062Z,22.90
2017-12-31T03:09:26.538Z,22.90
2017-12-31T03:11:53.988Z,22.90
2017-12-31T03:14:21.480Z,22.90
2017-12-31T03:16:48.937Z,22.90
2017-12-31T03:19:16.480Z,22.80
2017-12-31T03:21:43.940Z,22.80
2017-12-31T03:24:11.461Z,22.80
2017-12-31T03:26:38.899Z,22.80
2017-12-31T03:29:06.491Z,22.80
2017-12-31T03:31:34.074Z,22.70
2017-12-31T03:34:01.530Z,22.70
2017-12-31T03:36:29.040Z,22.70
2017-12-31T03:38:56.505Z,22.60
2017-12-31T03:41:23.953Z,22.60
2017-12-31T03:43:51.416Z,22.60
2017-12-31T03:46:18.870Z,22.60
2017-12-31T03:48:46.338Z,22.60
2017-12-31T03:51:13.782Z,22.50
2017-12-31T03:53:41.239Z,22.50
2017-12-31T03:56:08.695Z,22.50
2017-12-31T03:58:36.143Z,22.50
2017-12-31T04:01:03.597Z,22.50
2017-12-31T04:03:31.061Z,22.50
2017-12-31T04:05:58.514Z,22.50
2017-12-31T04:08:25.970Z,22.50
2017-12-31T04:10:53.431Z,22.50
2017-12-31T04:13:20.886Z,22.50
2017-12-31T04:15:48.421Z,22.50
2017-12-31T04:18:15.924Z,22.50
2017-12-31T04:20:43.373Z,22.50
2017-12-31T04:23:10.840Z,22.50
2017-12-31T04:25:38.295Z,22.50
2017-12-31T04:28:05.752Z,22.50
2017-12-31T04:30:33.215Z,22.50
2017-12-31T04:33:00.652Z,22.50
2017-12-31T04:35:28.113Z,22.50
2017-12-31T04:37:55.576Z,22.50
2017-12-31T04:40:23.028Z,22.50
2017-12-31T04:42:50.476Z,22.50
2017-12-31T04:45:17.937Z,22.50
2017-12-31T04:47:45.409Z,22.50
2017-12-31T04:50:12.865Z,22.50
2017-12-31T04:52:40.319Z,22.50
2017-12-31T04:55:07.816Z,22.50
2017-12-31T04:57:35.224Z,22.50
2017-12-31T05:00:02.708Z,22.50
2017-12-31T05:02:30.165Z,22.50
2017-12-31T05:04:57.632Z,22.50
2017-12-31T05:07:25.080Z,22.50
2017-12-31T05:09:52.538Z,22.50
2017-12-31T05:12:19.996Z,22.50
2017-12-31T05:14:47.465Z,22.50
2017-12-31T05:17:14.913Z,22.50
2017-12-31T05:19:42.385Z,22.40
2017-12-31T05:22:09.836Z,22.40
2017-12-31T05:24:37.292Z,22.40
2017-12-31T05:27:04.744Z,22.50
2017-12-31T05:29:32.206Z,22.60
2017-12-31T05:31:59.827Z,22.60
2017-12-31T05:34:27.289Z,22.60
2017-12-31T05:36:54.750Z,22.60
2017-12-31T05:39:22.218Z,22.60
2017-12-31T05:41:49.707Z,22.60
2017-12-31T05:44:17.151Z,22.60
2017-12-31T05:46:44.642Z,22.60
2017-12-31T05:49:12.148Z,22.60
2017-12-31T05:51:39.635Z,22.60
2017-12-31T05:54:07.087Z,22.60
2017-12-31T05:56:34.543Z,22.60
2017-12-31T05:59:02.180Z,22.50
2017-12-31T06:01:30.408Z,22.50
2017-12-31T06:03:57.868Z,22.50
2017-12-31T06:06:25.362Z,22.50
2017-12-31T06:08:52.809Z,22.60
2017-12-31T06:11:20.661Z,22.60
2017-12-31T06:13:48.893Z,22.60
2017-12-31T06:16:16.357Z,22.60
2017-12-31T06:18:43.841Z,22.60
2017-12-31T06:21:11.285Z,22.60
2017-12-31T06:23:38.940Z,22.60
2017-12-31T06:26:06.420Z,22.60
2017-12-31T06:28:33.976Z,22.60
2017-12-31T06:31:01.424Z,22.60
2017-12-31T06:33:28.904Z,22.60
2017-12-31T06:35:56.356Z,22.60
2017-12-31T06:38:23.844Z,22.60
2017-12-31T06:40:51.412Z,22.60
2017-12-31T06:43:18.859Z,22.60
2017-12-31T06:45:46.321Z,22.60
2017-12-31T06:48:13.764Z,22.60
2017-12-31T06:50:41.980Z,22.60
2017-12-31T06:53:09.439Z,22.50
2017-12-31T06:55:36.944Z,22.60
2017-12-31T06:58:04.398Z,22.50
2017-12-31T07:00:31.849Z,22.50
2017-12-31T07:02:59.597Z,22.50
2017-12-31T07:05:27.052Z,22.50
2017-12-31T07:07:54.537Z,22.50
2017-12-31T07:10:21.997Z,22.40
2017-12-31T07:12:49.476Z,22.50
2017-12-31T07:15:16.922Z,22.40
2017-12-31T07:17:44.377Z,22.50
2017-12-31T07:20:11.877Z,22.50
2017-12-31T07:22:39.476Z,22.50
2017-12-31T07:25:06.931Z,22.50
2017-12-31T07:27:34.401Z,22.50
2017-12-31T07:30:01.872Z,22.50
2017-12-31T07:32:29.321Z,22.50
2017-12-31T07:34:56.777Z,22.50
2017-12-31T07:37:25.015Z,22.50
2017-12-31T07:39:52.504Z,22.50
2017-12-31T07:42:19.958Z,22.50
2017-12-31T07:44:47.413Z,22.50
2017-12-31T07:47:14.897Z,22.50
2017-12-31T07:49:43.133Z,22.40
2017-12-31T07:52:10.593Z,22.40
2017-12-31T07:54:38.068Z,22.40
2017-12-31T07:57:05.524Z,22.40
2017-12-31T07:59:32.986Z,22.40
2017-12-31T08:02:00.444Z,22.40
2017-12-31T08:04:27.914Z,22.40
2017-12-31T08:06:55.372Z,22.40
2017-12-31T08:09:22.841Z,22.30
2017-12-31T08:11:50.288Z,22.30
2017-12-31T08:14:17.739Z,22.30
2017-12-31T08:16:45.204Z,22.30
2017-12-31T08:19:12.841Z,22.30
2017-12-31T08:21:40.334Z,22.20
2017-12-31T08:24:07.776Z,22.20
2017-12-31T08:26:35.249Z,22.20
2017-12-31T08:29:02.692Z,22.20
2017-12-31T08:31:30.162Z,22.10
2017-12-31T08:33:57.606Z,22.10
2017-12-31T08:36:25.128Z,22.10
2017-12-31T08:38:52.588Z,22.10
2017-12-31T08:41:20.049Z,22.10
2017-12-31T08:43:47.505Z,22.10
2017-12-31T08:46:14.960Z,22.10
2017-12-31T08:48:42.420Z,22.10
2017-12-31T08:51:10.082Z,22.10
2017-12-31T08:53:37.540Z,22.10
2017-12-31T08:56:05.062Z,22.10
2017-12-31T08:58:32.516Z,22.10
2017-12-31T09:00:59.992Z,22.00
2017-12-31T09:03:27.442Z,22.00
2017-12-31T09:05:54.908Z,22.00
2017-12-31T09:08:22.358Z,22.00
2017-12-31T09:10:49.816Z,22.00
2017-12-31T09:13:17.284Z,22.00
2017-12-31T09:15:44.732Z,22.00
2017-12-31T09:18:12.194Z,22.10
2017-12-31T09:20:39.648Z,22.10
2017-12-31T09:23:07.105Z,22.10
2017-12-31T09:25:34.557Z,22.10
2017-12-31T09:28:02.016Z,22.10
2017-12-31T09:30:29.470Z,22.10
2017-12-31T09:32:56.934Z,22.10
2017-12-31T09:35:24.395Z,22.20
2017-12-31T09:37:51.849Z,22.20
2017-12-31T09:40:19.304Z,22.20
2017-12-31T09:42:46.759Z,22.30
2017-12-31T09:45:14.216Z,22.30
2017-12-31T09:47:41.680Z,22.30
2017-12-31T09:50:09.130Z,22.30
2017-12-31T09:52:36.602Z,22.40
2017-12-31T09:55:04.269Z,22.40
2017-12-31T09:57:31.727Z,22.40
2017-12-31T09:59:59.239Z,22.50
2017-12-31T10:02:26.709Z,22.50
2017-12-31T10:04:54.165Z,22.50
2017-12-31T10:07:21.617Z,22.50
2017-12-31T10:09:49.162Z,22.60
2017-12-31T10:12:16.610Z,22.60
2017-12-31T10:14:44.082Z,22.60
2017-12-31T10:17:11.536Z,22.60
2017-12-31T10:19:39.004Z,22.60
2017-12-31T10:22:06.448Z,22.60
2017-12-31T10:24:34.006Z,22.60
2017-12-31T10:27:02.405Z,22.60
2017-12-31T10:29:29.863Z,22.60
2017-12-31T10:31:57.320Z,22.60
2017-12-31T10:34:24.792Z,22.60
2017-12-31T10:36:53.092Z,22.30
2017-12-31T10:39:20.564Z,22.30
2017-12-31T10:41:48.177Z,22.20
2017-12-31T10:44:15.640Z,22.20
2017-12-31T10:46:43.133Z,22.20
2017-12-31T10:49:10.603Z,22.30
2017-12-31T10:51:38.093Z,22.30
2017-12-31T10:54:05.554Z,22.30
2017-12-31T10:56:32.996Z,22.40
2017-12-31T10:59:00.456Z,22.40
2017-12-31T11:01:27.905Z,22.50
2017-12-31T11:03:55.360Z,22.50
2017-12-31T11:06:22.813Z,22.50
2017-12-31T11:08:50.269Z,22.50
2017-12-31T11:11:17.713Z,22.50
2017-12-31T11:13:45.184Z,22.60
2017-12-31T11:16:12.701Z,22.60
2017-12-31T11:18:40.137Z,22.60
2017-12-31T11:21:07.612Z,22.60
2017-12-31T11:23:35.053Z,22.60
2017-12-31T11:26:02.582Z,22.60
2017-12-31T11:28:30.040Z,22.60
2017-12-31T11:30:57.492Z,22.60
2017-12-31T11:33:24.940Z,22.60
2017-12-31T11:35:52.564Z,22.60
2017-12-31T11:38:20.022Z,22.60
2017-12-31T11:40:47.514Z,22.60
2017-12-31T11:43:15.009Z,22.60
2017-12-31T11:45:42.470Z,22.60
2017-12-31T11:48:09.965Z,22.60
2017-12-31T11:50:37.417Z,22.60
2017-12-31T11:53:04.898Z,22.60
2017-12-31T11:55:32.360Z,22.50
2017-12-31T11:57:59.845Z,22.50
2017-12-31T12:00:27.287Z,22.50
2017-12-31T12:02:54.742Z,22.50
2017-12-31T12:05:22.208Z,22.50
2017-12-31T12:07:49.669Z,22.50
2017-12-31T12:10:17.120Z,22.50
2017-12-31T12:12:44.581Z,22.40
2017-12-31T12:15:12.068Z,22.40
2017-12-31T12:17:39.569Z,22.40
2017-12-31T12:20:07.784Z,22.40
2017-12-31T12:22:35.260Z,22.40
2017-12-31T12:25:02.719Z,22.40
2017-12-31T12:27:30.178Z,22.40
2017-12-31T12:29:57.629Z,22.40
2017-12-31T12:32:25.101Z,22.40
2017-12-31T12:34:52.561Z,22.40
2017-12-31T12:37:20.032Z,22.40
2017-12-31T12:39:47.476Z,22.40
2017-12-31T12:42:14.942Z,22.40
2017-12-31T12:44:42.392Z,22.50
2017-12-31T12:47:09.860Z,22.50
2017-12-31T12:49:37.512Z,22.50
2017-12-31T12:52:04.946Z,22.50
2017-12-31T12:54:32.409Z,22.50
2017-12-31T12:56:59.883Z,22.50
2017-12-31T12:59:27.329Z,22.50
2017-12-31T13:01:55.848Z,22.50
2017-12-31T13:04:23.308Z,22.50
2017-12-31T13:06:50.768Z,22.50
2017-12-31T13:09:18.216Z,22.50
2017-12-31T13:11:45.673Z,22.50
2017-12-31T13:14:13.126Z,22.50
2017-12-31T13:16:40.626Z,22.50
2017-12-31T13:19:08.078Z,22.50
2017-12-31T13:21:35.539Z,22.60
2017-12-31T13:24:03.205Z,22.50
2017-12-31T13:26:42.581Z,22.60
2017-12-31T13:29:10.385Z,22.60
2017-12-31T13:31:38.818Z,22.60
2017-12-31T13:34:06.409Z,22.60
2017-12-31T13:36:34.072Z,22.70
2017-12-31T13:39:01.829Z,22.60
2017-12-31T13:41:29.305Z,22.60
2017-12-31T13:43:56.765Z,22.60
2017-12-31T13:46:24.234Z,22.60
2017-12-31T13:48:51.698Z,22.70
2017-12-31T13:51:19.144Z,22.70
2017-12-31T13:53:46.605Z,22.80
2017-12-31T13:56:14.056Z,22.90
2017-12-31T13:58:41.546Z,23.00
2017-12-31T14:01:09.002Z,23.00
2017-12-31T14:03:37.248Z,23.00
2017-12-31T14:06:04.706Z,23.00
2017-12-31T14:08:32.172Z,23.10
2017-12-31T14:10:59.672Z,23.10
2017-12-31T14:13:27.085Z,23.10
2017-12-31T14:15:54.899Z,23.10
2017-12-31T14:18:22.408Z,23.10
2017-12-31T14:20:49.983Z,23.10
2017-12-31T14:23:17.809Z,23.10
2017-12-31T14:25:45.618Z,23.10
2017-12-31T14:28:13.142Z,23.10
2017-12-31T14:30:40.909Z,23.10
2017-12-31T14:33:08.749Z,23.20
2017-12-31T14:35:36.758Z,23.20
2017-12-31T14:38:06.881Z,23.20
2017-12-31T14:40:35.321Z,23.20
2017-12-31T14:43:02.997Z,23.20
2017-12-31T14:45:30.565Z,23.20
2017-12-31T14:47:58.270Z,23.20
2017-12-31T14:50:25.922Z,23.20
2017-12-31T14:52:53.426Z,23.20
2017-12-31T14:55:20.972Z,23.20
2017-12-31T14:57:48.433Z,23.20
2017-12-31T15:00:15.912Z,23.20
2017-12-31T15:02:43.536Z,23.20
2017-12-31T15:05:11.025Z,23.20
2017-12-31T15:07:38.636Z,23.20
2017-12-31T15:10:06.240Z,23.20
2017-12-31T15:12:33.712Z,23.30
2017-12-31T15:15:01.392Z,23.20
2017-12-31T15:17:28.846Z,23.30
2017-12-31T15:19:56.686Z,23.30
2017-12-31T15:22:24.347Z,23.30
2017-12-31T15:24:51.905Z,23.20
2017-12-31T15:27:19.693Z,23.30
2017-12-31T15:29:47.740Z,23.20
2017-12-31T15:32:15.682Z,23.20
2017-12-31T15:34:43.124Z,23.30
2017-12-31T15:37:10.598Z,23.30
2017-12-31T15:39:38.670Z,23.30
2017-12-31T15:42:06.210Z,23.30
2017-12-31T15:44:33.675Z,23.20
2017-12-31T15:47:01.184Z,23.20
2017-12-31T15:49:29.318Z,23.20
2017-12-31T15:51:56.824Z,23.30
2017-12-31T15:54:25.507Z,23.30
2017-12-31T15:56:53.235Z,23.30
2017-12-31T15:59:20.683Z,23.30
2017-12-31T16:01:48.905Z,23.30
2017-12-31T16:04:16.464Z,23.30
2017-12-31T16:06:43.925Z,23.30
2017-12-31T16:09:13.236Z,23.30
2017-12-31T16:11:42.060Z,23.40
2017-12-31T16:14:10.416Z,23.30
2017-12-31T16:16:38.026Z,23.40
2017-12-31T16:19:05.489Z,23.40
2017-12-31T16:21:32.968Z,23.50
2017-12-31T16:24:00.428Z,23.50
2017-12-31T16:26:27.949Z,23.60
2017-12-31T16:28:55.407Z,23.60
2017-12-31T16:31:22.869Z,23.70
2017-12-31T16:33:50.345Z,23.80
2017-12-31T16:36:18.024Z,23.80
2017-12-31T16:38:45.485Z,23.70
2017-12-31T16:41:12.960Z,23.70
2017-12-31T16:43:40.970Z,23.70
2017-12-31T16:46:08.469Z,23.70
2017-12-31T16:48:35.999Z,23.60
2017-12-31T16:51:03.445Z,23.60
2017-12-31T16:53:30.948Z,23.60
2017-12-31T16:55:58.557Z,23.60
2017-12-31T16:58:26.788Z,23.60
2017-12-31T17:00:54.286Z,23.60
2017-12-31T17:03:22.584Z,23.60
2017-12-31T17:05:50.068Z,23.60
2017-12-31T17:08:17.532Z,23.60
2017-12-31T17:10:45.078Z,23.60
2017-12-31T17:13:12.544Z,23.60
2017-12-31T17:15:39.992Z,23.70
2017-12-31T17:18:07.456Z,23.70
2017-12-31T17:20:34.908Z,23.80
2017-12-31T17:23:02.376Z,23.80
2017-12-31T17:25:29.979Z,23.80
2017-12-31T17:27:57.472Z,23.80
2017-12-31T17:30:24.917Z,23.90
2017-12-31T17:32:52.372Z,23.90
2017-12-31T17:35:19.845Z,23.90
2017-12-31T17:37:47.300Z,23.90
2017-12-31T17:40:14.762Z,23.90
2017-12-31T17:42:42.215Z,24.00
2017-12-31T17:45:09.685Z,24.00
2017-12-31T17:47:37.192Z,24.00
2017-12-31T17:50:04.617Z,24.00
2017-12-31T17:52:32.078Z,24.00
2017-12-31T17:54:59.746Z,24.10
2017-12-31T17:57:27.312Z,24.10
2017-12-31T17:59:54.784Z,24.10
2017-12-31T18:02:22.437Z,24.00
2017-12-31T18:04:50.013Z,24.00
2017-12-31T18:07:17.506Z,24.00
2017-12-31T18:09:45.009Z,24.00
2017-12-31T18:12:12.577Z,23.90
2017-12-31T18:14:40.181Z,23.70
2017-12-31T18:17:07.657Z,23.40
2017-12-31T18:19:35.120Z,23.10
2017-12-31T18:22:02.841Z,22.80
2017-12-31T18:24:30.319Z,22.60
2017-12-31T18:26:57.920Z,22.50
2017-12-31T18:29:25.384Z,22.40
2017-12-31T18:31:52.842Z,22.40
2017-12-31T18:34:20.462Z,22.60
2017-12-31T18:36:47.916Z,22.90
2017-12-31T18:39:15.525Z,23.20
2017-12-31T18:41:43.082Z,23.40
2017-12-31T18:44:10.537Z,23.60
2017-12-31T18:46:38.010Z,23.80
2017-12-31T18:49:05.477Z,23.90
2017-12-31T18:51:32.947Z,24.00
2017-12-31T18:54:00.412Z,24.10
2017-12-31T18:56:27.885Z,24.10
2017-12-31T18:58:55.347Z,24.20
2017-12-31T19:01:22.812Z,24.20
2017-12-31T19:03:50.269Z,24.20
2017-12-31T19:06:17.741Z,24.30
2017-12-31T19:08:45.201Z,24.30
2017-12-31T19:11:12.673Z,24.30
2017-12-31T19:13:40.133Z,24.40
2017-12-31T19:16:07.615Z,24.30
2017-12-31T19:18:35.076Z,24.40
2017-12-31T19:21:02.552Z,24.40
2017-12-31T19:23:30.010Z,24.40
2017-12-31T19:25:57.475Z,24.40
2017-12-31T19:28:24.945Z,24.40
2017-12-31T19:30:53.184Z,24.40
2017-12-31T19:33:20.641Z,24.40
2017-12-31T19:35:48.106Z,24.40
2017-12-31T19:38:15.583Z,24.40
2017-12-31T19:40:43.043Z,24.50
2017-12-31T19:43:10.501Z,24.40
2017-12-31T19:45:37.961Z,24.50
2017-12-31T19:48:05.428Z,24.50
2017-12-31T19:50:32.934Z,24.50
2017-12-31T19:53:00.405Z,24.50
2017-12-31T19:55:27.860Z,24.50
2017-12-31T19:57:55.334Z,24.50
2017-12-31T20:00:22.788Z,24.50
2017-12-31T20:02:50.262Z,24.50
2017-12-31T20:05:17.724Z,24.50
2017-12-31T20:07:45.205Z,24.40
2017-12-31T20:10:13.423Z,24.40
2017-12-31T20:12:40.888Z,24.40
2017-12-31T20:15:08.345Z,24.40
2017-12-31T20:17:35.810Z,24.40
2017-12-31T20:20:03.261Z,24.40
2017-12-31T20:22:30.736Z,24.40
2017-12-31T20:24:58.188Z,24.40
2017-12-31T20:29:17.905Z,24.10
2017-12-31T20:31:46.151Z,18.10
2017-12-31T20:34:13.605Z,18.00
2017-12-31T20:36:41.068Z,15.70
2017-12-31T20:39:08.536Z,14.10
2017-12-31T20:41:35.998Z,12.90
2017-12-31T20:44:03.479Z,12.20
2017-12-31T20:46:30.930Z,11.60
2017-12-31T20:48:58.509Z,11.30
2017-12-31T20:51:25.982Z,11.20
2017-12-31T20:53:53.462Z,11.00
2017-12-31T20:56:20.920Z,10.90
2017-12-31T20:58:48.392Z,10.90
2017-12-31T21:01:15.853Z,10.80
2017-12-31T21:03:43.315Z,10.80
2017-12-31T21:06:10.768Z,10.80
2017-12-31T21:08:38.232Z,10.70
2017-12-31T21:11:05.693Z,10.70
2017-12-31T21:13:33.184Z,10.60
2017-12-31T21:16:00.645Z,10.60
2017-12-31T21:18:28.105Z,10.60
2017-12-31T21:20:55.569Z,10.50
2017-12-31T21:23:23.042Z,10.60
2017-12-31T21:25:50.515Z,10.60
2017-12-31T21:28:17.993Z,10.50
2017-12-31T21:30:45.458Z,10.50
2017-12-31T21:33:12.912Z,10.50
2017-12-31T21:35:40.371Z,10.50
2017-12-31T21:38:07.849Z,10.50
2017-12-31T21:40:36.033Z,10.50
2017-12-31T21:43:04.257Z,10.40
2017-12-31T21:45:31.769Z,10.40
2017-12-31T21:47:59.224Z,10.40
2017-12-31T21:50:26.693Z,10.30
2017-12-31T21:52:54.150Z,10.30
2017-12-31T21:55:21.612Z,10.30
2017-12-31T21:57:49.074Z,10.30
2017-12-31T22:00:16.533Z,10.30
2017-12-31T22:02:44.001Z,10.30
2017-12-31T22:05:11.466Z,10.30
2017-12-31T22:07:38.910Z,10.20
2017-12-31T22:10:06.369Z,10.20
2017-12-31T22:12:33.823Z,10.20
2017-12-31T22:15:01.458Z,10.10
2017-12-31T22:17:28.917Z,10.10
2017-12-31T22:19:59.427Z,10.10
2017-12-31T22:22:26.920Z,10.10
2017-12-31T22:24:54.383Z,10.00
2017-12-31T22:27:21.850Z,10.00
2017-12-31T22:29:49.357Z,10.00
2017-12-31T22:32:16.910Z,9.90
2017-12-31T22:34:44.390Z,9.90
2017-12-31T22:37:11.856Z,9.90
2017-12-31T22:39:39.329Z,9.90
2017-12-31T22:42:07.552Z,10.10
2017-12-31T23:36:58.389Z,9.20
2017-12-31T23:39:25.840Z,9.30
2017-12-31T23:41:53.320Z,9.40
2017-12-31T23:44:20.785Z,9.40
2017-12-31T23:46:48.269Z,9.50
2017-12-31T23:49:15.753Z,9.50
2017-12-31T23:51:43.258Z,9.50
2017-12-31T23:54:10.720Z,9.50
2017-12-31T23:56:38.181Z,9.50
